Time;durP1;ratioP1;P1;durP2;ratioP2;P2;SDS_P1;SDS_P2;PMS_P1;PMS_P2;Temp;Humidity;BMP_temperature;BMP_pressure;BME280_temperature;BME280_humidity;BME280_pressure;Samples;Min_cycle;Max_cycle;Signal;HPM_P1;HPM_P2
2021/09/14 00:00:03;;;;;;;6.85;6.15;;;22.90;96.70;;;;;;4964656;28;20039;-73
2021/09/14 00:02:39;;;;;;;8.33;6.77;;;22.90;96.70;;;;;;4960063;28;20459;-73
2021/09/14 00:05:09;;;;;;;6.80;6.00;;;22.90;96.70;;;;;;4958967;28;20050;-73
2021/09/14 00:07:37;;;;;;;6.28;5.68;;;22.90;96.70;;;;;;4962718;28;20097;-73
2021/09/14 00:10:07;;;;;;;7.03;6.32;;;22.90;96.70;;;;;;4959095;28;20053;-72
2021/09/14 00:12:36;;;;;;;7.40;5.70;;;22.90;96.70;;;;;;4963350;28;21109;-73
2021/09/14 00:15:06;;;;;;;8.25;5.72;;;22.90;96.70;;;;;;4958726;28;20139;-73
2021/09/14 00:17:34;;;;;;;7.95;5.53;;;22.90;96.70;;;;;;4962533;28;20416;-74
2021/09/14 00:20:05;;;;;;;7.28;6.40;;;22.80;96.70;;;;;;4957832;28;20054;-73
2021/09/14 00:22:33;;;;;;;7.20;5.88;;;22.90;96.70;;;;;;4959262;28;20051;-73
2021/09/14 00:25:02;;;;;;;6.05;5.45;;;22.90;96.70;;;;;;4960268;28;20198;-73
2021/09/14 00:27:30;;;;;;;6.20;5.40;;;22.90;96.70;;;;;;4958261;28;20126;-73
2021/09/14 00:29:58;;;;;;;6.10;5.50;;;22.80;96.70;;;;;;4963392;28;20047;-73
2021/09/14 00:32:26;;;;;;;5.95;5.40;;;22.50;96.70;;;;;;4964509;28;20051;-72
2021/09/14 00:34:55;;;;;;;8.50;6.20;;;22.50;96.70;;;;;;4959606;28;20101;-73
2021/09/14 00:37:25;;;;;;;6.80;6.05;;;22.50;96.70;;;;;;4965530;28;20520;-73
2021/09/14 00:39:53;;;;;;;7.85;6.50;;;22.50;96.70;;;;;;4960243;28;20257;-73
2021/09/14 00:42:21;;;;;;;7.30;5.72;;;22.60;96.70;;;;;;4963359;28;20047;-73
2021/09/14 00:44:50;;;;;;;7.70;6.18;;;22.60;96.70;;;;;;4957192;28;20051;-73
2021/09/14 00:47:18;;;;;;;7.93;6.50;;;22.70;96.70;;;;;;4973683;28;20509;-73
2021/09/14 00:50:16;;;;;;;7.43;6.72;;;22.40;96.70;;;;;;4960422;28;20533;-73
2021/09/14 00:56:56;;;;;;;8.20;7.15;;;22.60;96.70;;;;;;4925432;29;20615;-73
2021/09/14 00:59:25;;;;;;;8.30;7.03;;;22.40;96.70;;;;;;4924074;29;20047;-73
2021/09/14 01:05:20;;;;;;;8.18;7.30;;;22.40;96.70;;;;;;4920652;29;20421;-73
2021/09/14 01:08:10;;;;;;;8.18;6.80;;;22.50;96.70;;;;;;4922519;29;20051;-73
2021/09/14 01:10:38;;;;;;;8.02;7.22;;;22.40;96.70;;;;;;4923811;29;20058;-73
2021/09/14 01:13:29;;;;;;;7.53;6.63;;;22.30;96.70;;;;;;4921478;29;20523;-72
2021/09/14 01:16:04;;;;;;;7.40;6.35;;;22.40;96.70;;;;;;4926975;29;20051;-73
2021/09/14 01:18:44;;;;;;;7.95;7.13;;;22.30;96.70;;;;;;4933697;28;20059;-73
2021/09/14 01:21:20;;;;;;;8.10;7.40;;;22.20;96.70;;;;;;4923546;29;20047;-73
2021/09/14 01:24:01;;;;;;;9.40;7.60;;;22.10;96.70;;;;;;4923078;29;20052;-73
2021/09/14 01:26:33;;;;;;;9.00;8.10;;;22.10;96.70;;;;;;4921271;29;20388;-73
2021/09/14 01:32:15;;;;;;;8.57;7.65;;;22.10;96.70;;;;;;4916928;29;20047;-74
2021/09/14 01:34:43;;;;;;;7.93;7.13;;;22.10;96.70;;;;;;4919280;29;20095;-73
2021/09/14 01:37:12;;;;;;;9.63;7.32;;;22.20;96.70;;;;;;4905015;29;20076;-73
2021/09/14 01:39:57;;;;;;;7.18;6.50;;;22.20;96.70;;;;;;4922490;29;20495;-73
2021/09/14 01:42:25;;;;;;;7.95;6.65;;;22.20;96.70;;;;;;4922359;29;20075;-73
2021/09/14 01:44:53;;;;;;;7.70;6.90;;;22.20;96.70;;;;;;4922113;29;20043;-74
2021/09/14 01:47:21;;;;;;;6.28;5.68;;;22.00;96.70;;;;;;4913254;29;20102;-73
2021/09/14 01:49:50;;;;;;;8.00;6.75;;;22.00;96.70;;;;;;4923990;29;20439;-73
2021/09/14 01:52:18;;;;;;;6.47;5.70;;;21.90;96.70;;;;;;4954757;28;20423;-73
2021/09/14 01:54:49;;;;;;;7.03;6.38;;;21.80;96.70;;;;;;4961935;28;20413;-73
2021/09/14 01:57:21;;;;;;;8.07;6.25;;;21.70;96.70;;;;;;4956216;28;20218;-73
2021/09/14 02:42:07;;;;;;;10.77;9.85;;;21.60;96.70;;;;;;4963666;28;20054;-73
2021/09/14 02:59:07;;;;;;;14.95;12.18;;;21.80;96.70;;;;;;4959635;28;20068;-73
2021/09/14 03:01:35;;;;;;;15.02;12.23;;;22.00;96.70;;;;;;4960724;28;20070;-73
2021/09/14 03:04:13;;;;;;;13.55;12.23;;;22.00;96.70;;;;;;4964088;28;20039;-73
2021/09/14 03:10:11;;;;;;;15.27;13.43;;;21.80;96.70;;;;;;4958849;28;20047;-73
2021/09/14 03:12:58;;;;;;;15.73;13.52;;;21.70;96.70;;;;;;4966013;28;20502;-73
2021/09/14 03:15:26;;;;;;;16.55;13.80;;;21.70;96.70;;;;;;4937830;28;20082;-73
2021/09/14 03:18:12;;;;;;;15.93;13.40;;;21.70;96.70;;;;;;4946905;28;20047;-73
2021/09/14 03:20:43;;;;;;;15.95;12.70;;;21.70;96.70;;;;;;4963657;28;20047;-73
2021/09/14 03:23:33;;;;;;;18.20;15.00;;;21.70;96.70;;;;;;4961776;28;20054;-73
2021/09/14 03:26:02;;;;;;;18.73;15.02;;;21.60;96.70;;;;;;4955560;28;20098;-72
2021/09/14 03:28:49;;;;;;;21.55;16.33;;;21.70;96.70;;;;;;4957393;28;20082;-72
2021/09/14 03:31:18;;;;;;;16.85;12.98;;;21.60;96.70;;;;;;4983182;28;20046;-73
2021/09/14 03:33:47;;;;;;;18.75;14.15;;;21.50;96.70;;;;;;4964443;28;20133;-73
2021/09/14 03:36:19;;;;;;;21.48;14.88;;;21.50;96.70;;;;;;4967326;28;20117;-73
2021/09/14 03:38:50;;;;;;;22.85;17.42;;;21.60;96.70;;;;;;4964293;28;20054;-73
2021/09/14 03:41:20;;;;;;;19.17;16.08;;;21.70;96.70;;;;;;4948318;28;20066;-73
2021/09/14 03:43:50;;;;;;;21.55;15.45;;;21.70;96.70;;;;;;4962953;28;20035;-73
2021/09/14 03:46:22;;;;;;;21.65;16.70;;;21.70;96.70;;;;;;4964212;28;20043;-73
2021/09/14 03:48:54;;;;;;;23.35;17.50;;;21.70;96.70;;;;;;4965672;28;20047;-73
2021/09/14 03:51:28;;;;;;;22.52;17.17;;;21.70;96.70;;;;;;4956177;28;20050;-73
2021/09/14 03:53:56;;;;;;;25.77;17.95;;;21.70;96.70;;;;;;4960735;28;20138;-73
2021/09/14 03:56:25;;;;;;;26.98;18.55;;;21.70;96.70;;;;;;4945957;28;20042;-73
2021/09/14 03:58:53;;;;;;;26.83;16.85;;;21.70;96.70;;;;;;4964017;28;20497;-73
2021/09/14 04:01:23;;;;;;;28.35;17.40;;;21.70;96.70;;;;;;4941896;28;20062;-72
2021/09/14 04:04:02;;;;;;;31.23;18.02;;;21.70;96.70;;;;;;4979927;28;20453;-72
2021/09/14 04:09:10;;;;;;;31.33;18.67;;;21.60;96.70;;;;;;4962552;28;20061;-73
2021/09/14 04:11:50;;;;;;;24.98;18.23;;;21.70;96.70;;;;;;4963682;28;20051;-73
2021/09/14 04:14:19;;;;;;;25.75;16.30;;;21.80;96.70;;;;;;4978088;28;20055;-73
2021/09/14 04:16:48;;;;;;;26.77;16.48;;;21.80;96.70;;;;;;4966799;28;20078;-73
2021/09/14 04:19:17;;;;;;;22.40;16.20;;;21.90;96.70;;;;;;4964723;28;20449;-73
2021/09/14 04:22:21;;;;;;;20.33;16.52;;;21.80;96.70;;;;;;4960673;28;20062;-73
2021/09/14 04:24:49;;;;;;;25.02;16.35;;;21.70;96.70;;;;;;4945725;28;20133;-73
2021/09/14 04:27:37;;;;;;;25.42;15.45;;;21.70;96.70;;;;;;4972698;28;20175;-73
2021/09/14 04:30:08;;;;;;;25.20;16.23;;;21.70;96.70;;;;;;4958528;28;20042;-73
2021/09/14 04:32:38;;;;;;;23.95;15.40;;;21.60;96.70;;;;;;4963920;28;20081;-73
2021/09/14 04:35:06;;;;;;;24.95;15.38;;;21.50;96.70;;;;;;4994855;28;20098;-73
2021/09/14 04:37:36;;;;;;;27.08;15.43;;;21.40;96.70;;;;;;4963956;28;20508;-73
2021/09/14 04:40:08;;;;;;;27.00;15.98;;;21.40;96.70;;;;;;4957081;28;20078;-73
2021/09/14 04:42:36;;;;;;;22.63;15.63;;;21.40;96.70;;;;;;4964010;28;20057;-73
2021/09/14 04:45:06;;;;;;;19.88;13.52;;;21.50;96.70;;;;;;4986643;28;20584;-73
2021/09/14 04:47:35;;;;;;;27.48;15.80;;;21.50;96.70;;;;;;4945529;28;20053;-72
2021/09/14 04:50:04;;;;;;;25.88;15.25;;;21.60;96.70;;;;;;4958393;28;20059;-73
2021/09/14 04:52:33;;;;;;;24.80;14.98;;;21.50;96.70;;;;;;4948237;28;20065;-73
2021/09/14 04:55:03;;;;;;;19.75;13.43;;;21.50;96.70;;;;;;4964356;28;20074;-73
2021/09/14 04:57:32;;;;;;;22.35;14.30;;;21.60;96.70;;;;;;4994182;28;20110;-73
2021/09/14 05:00:02;;;;;;;18.58;12.82;;;21.70;96.70;;;;;;4948987;28;20078;-73
2021/09/14 05:02:31;;;;;;;20.92;12.65;;;21.70;96.70;;;;;;4967890;28;20066;-73
2021/09/14 05:04:59;;;;;;;20.73;14.20;;;21.70;96.70;;;;;;4959316;28;20535;-73
2021/09/14 05:07:29;;;;;;;20.65;15.82;;;21.70;96.70;;;;;;4962351;28;20039;-73
2021/09/14 05:09:57;;;;;;;22.70;15.43;;;21.70;96.70;;;;;;4957037;28;20122;-72
2021/09/14 05:12:26;;;;;;;31.40;16.58;;;21.60;96.70;;;;;;4987954;28;20539;-73
2021/09/14 05:14:54;;;;;;;24.73;16.42;;;21.70;96.70;;;;;;4955835;28;20043;-73
2021/09/14 05:17:44;;;;;;;23.25;16.67;;;21.70;96.70;;;;;;4963151;28;20053;-72
2021/09/14 05:20:35;;;;;;;25.25;15.45;;;21.70;96.70;;;;;;4960720;28;20047;-73
2021/09/14 05:23:16;;;;;;;22.33;16.67;;;21.70;96.70;;;;;;4973127;28;20450;-73
2021/09/14 05:25:45;;;;;;;24.23;16.83;;;21.70;96.70;;;;;;4972061;28;20078;-73
2021/09/14 05:28:15;;;;;;;827.03;623.28;;;21.70;96.70;;;;;;4954820;28;20043;-73
2021/09/14 05:30:45;;;;;;;1953.25;848.63;;;21.60;96.70;;;;;;4969723;28;20069;-73
2021/09/14 05:33:16;;;;;;;310.23;199.10;;;21.50;96.70;;;;;;4951367;28;20449;-73
2021/09/14 05:35:46;;;;;;;305.90;212.13;;;21.50;96.70;;;;;;4962392;28;20051;-73
2021/09/14 05:38:15;;;;;;;1407.82;818.03;;;21.60;96.70;;;;;;4942867;28;20047;-73
2021/09/14 05:40:45;;;;;;;348.70;232.00;;;21.60;96.70;;;;;;4956727;28;20380;-72
2021/09/14 05:43:21;;;;;;;404.20;267.75;;;21.60;96.70;;;;;;4963094;28;20073;-74
2021/09/14 05:45:49;;;;;;;258.35;161.25;;;21.50;96.70;;;;;;4963243;28;20431;-72
2021/09/14 05:48:20;;;;;;;140.68;89.97;;;21.60;96.70;;;;;;4964951;28;20053;-73
2021/09/14 05:50:49;;;;;;;73.22;46.55;;;21.60;96.70;;;;;;4956504;28;20058;-73
2021/09/14 05:53:17;;;;;;;44.40;29.90;;;21.50;96.70;;;;;;4959641;28;20603;-73
2021/09/14 05:55:46;;;;;;;29.80;21.42;;;21.40;96.70;;;;;;4961806;28;20066;-73
2021/09/14 05:58:16;;;;;;;23.77;17.27;;;21.50;96.70;;;;;;4958241;28;20076;-73
2021/09/14 06:00:47;;;;;;;20.27;15.65;;;21.50;96.70;;;;;;4980361;28;20605;-73
2021/09/14 06:03:16;;;;;;;18.30;14.07;;;21.50;96.70;;;;;;4983471;28;20125;-73
2021/09/14 06:05:44;;;;;;;15.65;12.70;;;21.60;96.70;;;;;;4956333;28;20401;-73
2021/09/14 06:08:13;;;;;;;12.65;11.30;;;21.60;96.70;;;;;;4962296;28;20071;-73
2021/09/14 06:10:45;;;;;;;13.43;11.63;;;21.60;96.70;;;;;;4953805;28;20055;-73
2021/09/14 06:13:16;;;;;;;19.65;14.05;;;21.70;96.70;;;;;;4959238;28;20058;-73
2021/09/14 06:15:47;;;;;;;15.98;14.23;;;21.80;96.70;;;;;;4954922;28;20149;-73
2021/09/14 06:18:22;;;;;;;17.17;13.63;;;21.90;96.70;;;;;;4958593;28;20047;-73
2021/09/14 06:20:51;;;;;;;19.55;16.63;;;21.90;96.70;;;;;;4956864;28;20105;-73
2021/09/14 06:23:19;;;;;;;18.05;14.75;;;22.00;96.70;;;;;;4968169;28;20050;-73
2021/09/14 06:25:49;;;;;;;15.07;12.70;;;22.10;96.70;;;;;;4968702;28;20054;-72
2021/09/14 06:28:18;;;;;;;18.50;13.60;;;22.10;96.70;;;;;;4943659;28;20046;-73
2021/09/14 06:30:48;;;;;;;15.85;13.13;;;22.20;96.70;;;;;;4942679;28;20082;-73
2021/09/14 06:33:20;;;;;;;20.38;13.85;;;22.30;96.70;;;;;;4970525;28;20114;-73
2021/09/14 06:35:51;;;;;;;18.58;13.68;;;22.20;96.70;;;;;;4954693;28;20046;-73
2021/09/14 06:38:25;;;;;;;18.73;14.18;;;22.20;96.70;;;;;;4962594;28;20046;-73
2021/09/14 06:40:55;;;;;;;18.13;13.90;;;22.20;96.70;;;;;;4961859;28;20065;-73
2021/09/14 06:43:33;;;;;;;16.90;13.60;;;22.20;96.70;;;;;;4971403;28;20074;-73
2021/09/14 06:46:29;;;;;;;20.13;13.98;;;22.20;96.70;;;;;;4958172;28;20401;-73
2021/09/14 06:49:05;;;;;;;17.77;13.98;;;22.30;96.70;;;;;;4956503;28;20035;-72
2021/09/14 06:51:33;;;;;;;17.08;14.15;;;22.30;96.70;;;;;;4947043;28;20474;-73
2021/09/14 06:54:01;;;;;;;20.08;14.05;;;22.40;96.70;;;;;;4955598;28;20074;-73
2021/09/14 06:56:30;;;;;;;18.67;12.95;;;22.30;96.70;;;;;;4960724;28;20050;-73
2021/09/14 06:58:58;;;;;;;20.52;13.20;;;22.40;96.70;;;;;;4957605;28;20043;-72
2021/09/14 07:01:28;;;;;;;18.45;13.57;;;22.50;96.70;;;;;;4964678;28;20562;-72
2021/09/14 07:03:56;;;;;;;13.65;12.20;;;22.60;96.70;;;;;;4938817;28;20506;-73
2021/09/14 07:06:24;;;;;;;19.02;13.48;;;22.60;96.70;;;;;;4949987;28;20089;-73
2021/09/14 07:08:53;;;;;;;13.95;11.05;;;22.60;96.70;;;;;;4970485;28;20573;-73
2021/09/14 07:11:21;;;;;;;14.65;12.05;;;22.70;96.70;;;;;;4958839;28;20441;-73
2021/09/14 07:13:49;;;;;;;15.15;12.00;;;22.80;96.70;;;;;;4964915;28;20046;-73
2021/09/14 07:16:17;;;;;;;14.00;12.43;;;22.80;96.70;;;;;;4966835;28;20157;-73
2021/09/14 07:18:47;;;;;;;14.00;11.73;;;22.80;96.70;;;;;;4962207;28;20047;-73
2021/09/14 07:21:15;;;;;;;12.43;11.20;;;22.90;96.70;;;;;;4966367;28;20556;-73
2021/09/14 07:23:43;;;;;;;12.30;10.98;;;23.00;96.70;;;;;;4956989;28;20138;-73
2021/09/14 07:26:12;;;;;;;10.40;9.25;;;23.00;96.70;;;;;;4966010;28;20042;-73
2021/09/14 07:28:40;;;;;;;12.25;10.35;;;23.20;96.70;;;;;;4956500;28;20051;-73
2021/09/14 07:31:10;;;;;;;11.50;9.40;;;23.20;96.70;;;;;;4965304;28;20054;-73
2021/09/14 07:33:39;;;;;;;10.70;9.65;;;23.20;96.70;;;;;;4961082;28;20311;-73
2021/09/14 07:36:12;;;;;;;11.85;10.00;;;23.20;96.70;;;;;;4964732;28;20043;-73
2021/09/14 07:38:42;;;;;;;11.68;9.27;;;23.10;96.70;;;;;;4961641;28;20038;-73
2021/09/14 07:41:10;;;;;;;13.63;10.57;;;23.10;96.70;;;;;;4968151;28;20540;-72
2021/09/14 07:43:39;;;;;;;11.98;9.48;;;23.20;96.70;;;;;;4959620;28;20103;-73
2021/09/14 07:46:09;;;;;;;10.40;9.18;;;23.20;96.70;;;;;;4963876;28;20047;-73
2021/09/14 07:48:37;;;;;;;9.70;8.80;;;23.20;96.70;;;;;;4961421;28;20047;-73
2021/09/14 07:51:05;;;;;;;10.82;8.85;;;23.30;96.70;;;;;;4967150;28;20038;-73
2021/09/14 07:53:35;;;;;;;11.45;9.23;;;23.40;96.70;;;;;;4963551;28;20054;-73
2021/09/14 07:56:03;;;;;;;8.70;7.85;;;23.50;96.70;;;;;;4958951;28;20405;-73
2021/09/14 07:58:31;;;;;;;8.93;8.02;;;23.50;96.70;;;;;;4962988;28;20046;-74
2021/09/14 08:01:00;;;;;;;9.57;7.80;;;23.40;96.70;;;;;;4964547;28;20078;-74
2021/09/14 08:03:28;;;;;;;8.38;7.57;;;23.40;96.70;;;;;;4962853;28;20505;-73
2021/09/14 08:05:56;;;;;;;9.13;8.00;;;23.50;96.70;;;;;;4960524;28;20043;-73
2021/09/14 08:08:25;;;;;;;10.45;8.10;;;23.50;96.70;;;;;;4961023;28;20053;-73
2021/09/14 08:10:54;;;;;;;11.05;7.28;;;23.60;96.70;;;;;;4958799;28;20798;-73
2021/09/14 08:13:36;;;;;;;12.32;7.63;;;23.70;96.70;;;;;;4958452;28;20094;-73
2021/09/14 08:16:04;;;;;;;11.32;7.47;;;23.90;96.70;;;;;;4959360;28;20054;-73
2021/09/14 08:18:33;;;;;;;8.68;7.80;;;24.00;96.70;;;;;;4957502;28;20039;-72
2021/09/14 08:21:01;;;;;;;15.25;8.30;;;24.20;96.70;;;;;;4958241;28;20390;-73
2021/09/14 08:23:30;;;;;;;8.55;6.78;;;24.20;96.70;;;;;;4964333;28;20046;-73
2021/09/14 08:26:00;;;;;;;9.52;7.97;;;24.30;96.70;;;;;;4963771;28;20131;-73
2021/09/14 08:28:28;;;;;;;8.50;7.40;;;24.30;96.70;;;;;;4949987;28;20531;-73
2021/09/14 08:30:56;;;;;;;10.00;7.55;;;24.40;96.70;;;;;;4956101;28;20513;-73
2021/09/14 08:33:24;;;;;;;10.63;7.75;;;24.40;96.70;;;;;;4947424;28;20551;-74
2021/09/14 08:35:52;;;;;;;8.55;7.10;;;24.50;96.70;;;;;;4960264;28;20070;-73
2021/09/14 08:38:20;;;;;;;8.27;7.28;;;24.40;96.70;;;;;;4955138;28;20062;-74
2021/09/14 08:40:48;;;;;;;10.02;7.75;;;24.40;96.70;;;;;;4962562;28;20046;-73
2021/09/14 08:43:18;;;;;;;7.95;7.25;;;24.40;96.70;;;;;;4963141;28;20445;-73
2021/09/14 08:45:46;;;;;;;8.65;7.55;;;24.50;96.70;;;;;;4965352;28;20045;-73
2021/09/14 08:48:25;;;;;;;7.90;6.80;;;24.50;96.70;;;;;;4964069;28;20139;-73
2021/09/14 08:50:53;;;;;;;7.95;6.82;;;24.60;96.70;;;;;;4959439;28;20501;-73
2021/09/14 08:53:21;;;;;;;7.78;7.07;;;24.70;96.70;;;;;;4962802;28;20050;-73
2021/09/14 08:55:49;;;;;;;9.23;8.23;;;24.80;96.70;;;;;;4949881;28;20050;-73
2021/09/14 08:58:18;;;;;;;9.70;8.75;;;24.90;96.70;;;;;;4963810;28;20490;-74
2021/09/14 09:00:47;;;;;;;9.23;8.10;;;24.90;96.70;;;;;;4962484;28;20051;-73
2021/09/14 09:03:21;;;;;;;7.68;6.88;;;24.90;96.70;;;;;;4956827;28;20039;-73
2021/09/14 09:05:50;;;;;;;8.57;7.20;;;24.90;96.70;;;;;;4960482;28;20105;-73
2021/09/14 09:08:20;;;;;;;9.85;7.82;;;24.90;96.70;;;;;;4963338;28;20094;-73
2021/09/14 09:11:02;;;;;;;9.13;8.18;;;24.90;96.70;;;;;;4960549;28;20043;-73
2021/09/14 09:13:33;;;;;;;8.18;7.32;;;24.80;96.70;;;;;;4957124;28;20046;-73
2021/09/14 09:16:05;;;;;;;12.13;7.70;;;24.80;96.70;;;;;;4976317;28;20137;-73
2021/09/14 09:18:33;;;;;;;8.55;7.57;;;24.90;96.70;;;;;;4958336;28;20070;-73
2021/09/14 09:21:02;;;;;;;10.77;7.47;;;25.00;96.70;;;;;;4962284;28;20055;-73
2021/09/14 09:23:30;;;;;;;7.63;6.78;;;25.10;96.70;;;;;;4959565;28;20135;-73
2021/09/14 09:26:07;;;;;;;9.35;6.70;;;25.20;96.70;;;;;;4960791;28;20035;-73
2021/09/14 09:28:37;;;;;;;10.05;7.30;;;25.30;96.70;;;;;;4959356;28;20098;-73
2021/09/14 09:31:11;;;;;;;8.38;7.18;;;25.40;96.70;;;;;;4945609;28;20422;-73
2021/09/14 09:33:39;;;;;;;8.10;7.30;;;25.50;96.70;;;;;;4957485;28;20490;-73
2021/09/14 09:36:08;;;;;;;8.10;7.32;;;25.50;96.70;;;;;;4962456;28;20101;-73
2021/09/14 09:38:47;;;;;;;8.38;6.50;;;25.50;96.70;;;;;;4960565;28;20038;-73
2021/09/14 09:41:17;;;;;;;9.63;6.82;;;25.60;96.70;;;;;;4962078;28;20425;-73
2021/09/14 09:43:47;;;;;;;7.90;6.57;;;25.70;96.70;;;;;;4962178;28;20035;-73
2021/09/14 09:46:22;;;;;;;6.75;5.95;;;25.80;96.70;;;;;;4963232;28;20039;-73
2021/09/14 09:48:50;;;;;;;6.68;6.00;;;25.70;96.70;;;;;;4958146;28;20043;-73
2021/09/14 09:51:18;;;;;;;7.22;6.28;;;25.60;96.70;;;;;;4958430;28;20374;-73
2021/09/14 09:53:46;;;;;;;7.53;6.72;;;25.70;96.70;;;;;;4969136;28;20062;-73
2021/09/14 09:56:15;;;;;;;8.07;7.30;;;25.80;96.70;;;;;;4995642;28;20623;-73
2021/09/14 09:58:46;;;;;;;7.05;6.15;;;25.80;96.70;;;;;;4956307;28;20117;-73
2021/09/14 10:01:15;;;;;;;8.18;7.15;;;25.90;96.70;;;;;;4963078;28;20101;-73
2021/09/14 10:03:53;;;;;;;8.75;6.80;;;26.20;96.70;;;;;;4958487;28;20042;-73
2021/09/14 10:06:22;;;;;;;8.68;6.70;;;26.40;96.70;;;;;;4959599;28;20043;-73
2021/09/14 10:08:53;;;;;;;7.25;6.47;;;26.50;96.70;;;;;;4963271;28;20133;-73
2021/09/14 10:11:26;;;;;;;9.13;7.00;;;26.60;96.70;;;;;;4955549;28;20089;-74
2021/09/14 10:14:11;;;;;;;7.28;6.40;;;26.70;96.70;;;;;;4979108;28;20043;-73
2021/09/14 10:16:45;;;;;;;6.63;5.85;;;26.90;96.70;;;;;;4969928;28;20051;-73
2021/09/14 10:19:15;;;;;;;6.20;5.38;;;27.10;96.70;;;;;;4964711;28;20038;-73
2021/09/14 10:21:44;;;;;;;7.65;5.30;;;27.30;96.70;;;;;;4961813;28;20047;-73
2021/09/14 10:24:19;;;;;;;6.88;5.65;;;27.30;96.70;;;;;;4959488;28;20039;-73
2021/09/14 10:26:47;;;;;;;6.90;6.15;;;27.30;96.70;;;;;;4956641;28;20046;-73
2021/09/14 10:29:19;;;;;;;6.93;5.55;;;27.30;96.70;;;;;;4972978;28;20130;-73
2021/09/14 10:31:58;;;;;;;5.97;5.38;;;27.30;96.70;;;;;;4957456;28;20043;-73
2021/09/14 10:34:26;;;;;;;7.85;5.00;;;27.50;96.70;;;;;;4955333;28;20055;-73
2021/09/14 10:37:00;;;;;;;5.45;4.68;;;27.70;96.70;;;;;;4958398;28;20046;-73
2021/09/14 10:39:34;;;;;;;6.03;5.05;;;27.70;96.70;;;;;;4962569;28;20125;-73
2021/09/14 10:42:12;;;;;;;4.88;4.45;;;27.80;96.70;;;;;;4957476;28;20074;-73
2021/09/14 10:44:43;;;;;;;4.90;4.40;;;27.90;96.70;;;;;;4962949;28;20038;-73
2021/09/14 10:47:12;;;;;;;5.57;4.63;;;28.10;96.70;;;;;;4973775;28;20413;-74
2021/09/14 10:49:48;;;;;;;5.25;4.75;;;28.00;96.70;;;;;;4963059;28;20047;-73
2021/09/14 10:52:18;;;;;;;5.53;4.63;;;28.00;96.70;;;;;;4963428;28;20051;-73
2021/09/14 10:54:50;;;;;;;5.85;4.57;;;28.00;96.70;;;;;;4962339;28;20098;-73
2021/09/14 10:57:22;;;;;;;5.97;4.43;;;28.10;96.70;;;;;;4964173;28;20034;-73
2021/09/14 10:59:52;;;;;;;4.78;4.13;;;28.10;96.70;;;;;;4961224;28;20595;-73
2021/09/14 11:02:24;;;;;;;5.05;4.43;;;28.10;96.70;;;;;;4967618;28;20122;-73
2021/09/14 11:04:55;;;;;;;7.38;4.70;;;28.40;96.70;;;;;;4960191;28;20491;-74
2021/09/14 11:07:23;;;;;;;5.05;4.53;;;28.50;96.70;;;;;;4966420;28;20078;-73
2021/09/14 11:09:57;;;;;;;5.30;4.80;;;28.80;96.70;;;;;;4961725;28;20043;-73
2021/09/14 11:12:27;;;;;;;7.07;5.05;;;28.80;96.70;;;;;;4949923;28;20070;-73
2021/09/14 11:14:58;;;;;;;8.05;5.15;;;29.00;96.70;;;;;;4959629;28;20050;-73
2021/09/14 11:17:28;;;;;;;5.60;5.10;;;29.00;96.70;;;;;;4958604;28;20057;-73
2021/09/14 11:20:09;;;;;;;5.95;4.97;;;29.10;96.70;;;;;;4963466;28;20091;-73
2021/09/14 11:22:39;;;;;;;5.88;5.38;;;29.10;96.70;;;;;;4955997;28;20078;-73
2021/09/14 11:25:12;;;;;;;5.43;4.85;;;29.10;96.70;;;;;;4962417;28;20137;-73
2021/09/14 11:27:40;;;;;;;6.63;5.70;;;29.10;96.70;;;;;;4959001;28;20047;-73
2021/09/14 11:30:13;;;;;;;5.72;5.22;;;29.20;96.70;;;;;;4962505;28;20527;-73
2021/09/14 11:32:43;;;;;;;6.13;5.00;;;29.10;96.70;;;;;;4959395;28;20051;-73
2021/09/14 11:35:12;;;;;;;6.43;5.00;;;29.10;96.70;;;;;;4955718;28;20094;-73
2021/09/14 11:37:40;;;;;;;5.88;4.95;;;29.20;96.70;;;;;;4961122;28;20129;-73
2021/09/14 11:40:17;;;;;;;4.75;4.00;;;29.40;96.70;;;;;;4970221;28;20050;-73
2021/09/14 11:42:55;;;;;;;5.18;4.30;;;29.50;95.80;;;;;;4959639;28;20167;-73
2021/09/14 11:45:26;;;;;;;5.05;4.13;;;29.70;95.70;;;;;;4966483;28;20035;-73
2021/09/14 11:47:55;;;;;;;6.30;3.40;;;29.70;95.50;;;;;;4959275;28;20055;-73
2021/09/14 11:50:37;;;;;;;5.47;3.25;;;29.70;93.50;;;;;;4966656;28;20098;-73
2021/09/14 11:53:07;;;;;;;4.45;3.05;;;29.70;92.10;;;;;;4964761;28;20046;-73
2021/09/14 11:55:39;;;;;;;3.20;2.90;;;29.80;91.80;;;;;;4956932;28;20038;-73
2021/09/14 11:58:08;;;;;;;3.42;3.13;;;29.80;91.80;;;;;;4956063;28;20489;-73
2021/09/14 12:00:39;;;;;;;5.68;3.47;;;30.00;92.10;;;;;;4958952;28;20051;-73
2021/09/14 12:03:07;;;;;;;4.10;2.85;;;30.10;92.10;;;;;;4967017;28;20039;-73
2021/09/14 12:05:36;;;;;;;3.13;2.83;;;30.20;91.40;;;;;;4952797;28;20497;-73
2021/09/14 12:08:11;;;;;;;4.15;2.80;;;30.20;88.80;;;;;;4962115;28;20037;-73
2021/09/14 12:10:44;;;;;;;4.47;2.88;;;30.30;88.40;;;;;;4958822;28;20138;-73
2021/09/14 12:13:17;;;;;;;4.50;3.10;;;30.20;88.20;;;;;;4965812;28;20555;-73
2021/09/14 12:15:48;;;;;;;4.10;2.83;;;30.20;88.50;;;;;;4956875;28;20463;-73
2021/09/14 12:18:17;;;;;;;4.13;2.72;;;30.10;87.40;;;;;;4959359;28;20090;-73
2021/09/14 12:20:45;;;;;;;3.83;2.33;;;30.10;87.10;;;;;;4957877;28;20117;-73
2021/09/14 12:23:13;;;;;;;6.35;3.25;;;30.10;88.20;;;;;;4963196;28;20501;-74
2021/09/14 12:25:42;;;;;;;3.80;3.15;;;30.30;88.90;;;;;;4959148;28;20075;-73
2021/09/14 12:28:10;;;;;;;4.35;3.53;;;30.20;91.30;;;;;;4964916;28;20130;-73
2021/09/14 12:30:38;;;;;;;3.97;3.50;;;30.10;91.70;;;;;;4954313;28;20098;-73
2021/09/14 12:33:08;;;;;;;4.13;3.72;;;30.10;91.00;;;;;;4962708;28;20058;-73
2021/09/14 12:35:36;;;;;;;6.63;3.13;;;30.00;91.90;;;;;;4940364;28;20458;-73
2021/09/14 12:38:08;;;;;;;4.88;2.97;;;30.10;91.80;;;;;;4978597;28;20055;-73
2021/09/14 12:40:36;;;;;;;6.00;3.50;;;30.10;92.90;;;;;;4956359;28;20172;-73
2021/09/14 12:43:04;;;;;;;7.75;3.13;;;29.90;94.10;;;;;;4960889;28;20097;-72
2021/09/14 12:45:32;;;;;;;3.42;2.80;;;29.80;94.40;;;;;;4953055;28;20129;-73
2021/09/14 12:48:01;;;;;;;6.50;2.92;;;29.70;94.10;;;;;;4956660;28;20047;-73
2021/09/14 12:50:31;;;;;;;5.43;2.50;;;29.80;94.20;;;;;;4959040;28;20047;-73
2021/09/14 12:52:59;;;;;;;4.80;2.45;;;29.50;94.10;;;;;;4960303;28;20078;-74
2021/09/14 12:55:27;;;;;;;4.57;2.60;;;29.40;93.90;;;;;;4957073;28;20569;-73
2021/09/14 12:57:55;;;;;;;2.97;2.35;;;29.40;94.10;;;;;;4963374;28;20047;-73
2021/09/14 13:00:23;;;;;;;3.92;2.10;;;29.40;94.00;;;;;;4967429;28;20046;-73
2021/09/14 13:02:51;;;;;;;4.20;2.20;;;29.30;93.00;;;;;;4957333;28;20043;-73
2021/09/14 13:05:20;;;;;;;6.63;2.53;;;29.40;93.40;;;;;;4956424;28;20117;-73
2021/09/14 13:07:49;;;;;;;3.63;2.80;;;29.20;95.30;;;;;;4961625;28;20400;-73
2021/09/14 13:10:29;;;;;;;3.80;2.33;;;29.10;96.00;;;;;;4957054;28;20051;-74
2021/09/14 13:16:10;;;;;;;4.38;2.50;;;29.00;95.90;;;;;;4963642;28;20149;-74
2021/09/14 13:18:39;;;;;;;4.05;2.30;;;28.90;96.50;;;;;;4964980;28;20402;-73
2021/09/14 13:21:07;;;;;;;3.85;2.33;;;29.00;95.50;;;;;;4960831;28;20129;-73
2021/09/14 13:23:38;;;;;;;5.13;2.40;;;28.90;94.80;;;;;;4954271;28;20038;-73
2021/09/14 13:26:06;;;;;;;5.22;2.40;;;28.80;94.50;;;;;;4962509;28;20047;-73
2021/09/14 13:28:35;;;;;;;3.33;2.28;;;28.90;95.50;;;;;;4961032;28;20039;-73
2021/09/14 13:31:03;;;;;;;4.32;2.53;;;28.80;95.90;;;;;;4958286;28;20039;-73
2021/09/14 13:33:32;;;;;;;4.82;2.30;;;28.80;96.70;;;;;;4959192;28;20625;-73
2021/09/14 13:36:00;;;;;;;4.22;2.53;;;28.70;96.70;;;;;;4962721;28;20049;-74
2021/09/14 13:38:30;;;;;;;4.35;2.78;;;28.70;96.70;;;;;;4962522;28;20150;-73
2021/09/14 13:41:19;;;;;;;5.38;2.50;;;28.60;96.70;;;;;;4965055;28;20061;-74
2021/09/14 13:43:52;;;;;;;4.22;2.22;;;28.60;96.70;;;;;;4968348;28;20140;-74
2021/09/14 13:46:20;;;;;;;4.53;2.45;;;28.60;96.20;;;;;;4961946;28;20375;-74
2021/09/14 13:48:50;;;;;;;2.80;1.95;;;28.70;95.90;;;;;;4951982;28;20049;-74
2021/09/14 13:51:19;;;;;;;6.78;2.10;;;28.60;94.90;;;;;;4962272;28;20061;-73
2021/09/14 13:53:50;;;;;;;3.15;1.73;;;28.60;95.40;;;;;;4958105;28;20540;-73
2021/09/14 13:56:21;;;;;;;3.85;2.20;;;28.60;94.40;;;;;;4958454;28;20050;-73
2021/09/14 13:58:49;;;;;;;5.38;2.15;;;28.70;94.90;;;;;;4957565;28;20046;-73
2021/09/14 14:01:18;;;;;;;4.05;2.35;;;28.70;95.30;;;;;;4957539;28;20421;-73
2021/09/14 14:03:47;;;;;;;4.53;2.20;;;28.50;95.70;;;;;;4961544;28;20102;-74
2021/09/14 14:06:15;;;;;;;3.63;2.35;;;28.50;95.30;;;;;;4961573;28;20038;-74
2021/09/14 14:08:44;;;;;;;3.50;2.33;;;28.50;95.80;;;;;;4958033;28;20040;-73
2021/09/14 14:11:12;;;;;;;5.07;2.20;;;28.40;96.10;;;;;;4957334;28;20130;-74
2021/09/14 14:13:41;;;;;;;5.38;2.42;;;28.40;96.50;;;;;;4959315;28;20046;-73